createdAt,value
2022-10-24T00:01:45.387Z,22.50
2022-10-24T00:04:15.105Z,22.60
2022-10-24T00:06:43.595Z,22.50
2022-10-24T00:09:11.898Z,22.50
2022-10-24T00:11:43.866Z,22.50
2022-10-24T00:14:12.342Z,22.50
2022-10-24T00:16:40.617Z,22.50
2022-10-24T00:19:09.071Z,22.50
2022-10-24T00:21:38.800Z,22.50
2022-10-24T00:24:08.104Z,22.50
2022-10-24T00:26:37.197Z,22.50
2022-10-24T00:29:06.225Z,22.50
2022-10-24T00:31:34.992Z,22.50
2022-10-24T00:34:03.753Z,22.50
2022-10-24T00:36:32.947Z,22.50
2022-10-24T00:39:02.749Z,22.50
2022-10-24T00:41:34.927Z,22.50
2022-10-24T00:44:19.732Z,22.50
2022-10-24T00:46:51.888Z,22.40
2022-10-24T00:49:22.851Z,22.40
2022-10-24T00:51:54.257Z,22.40
2022-10-24T00:54:24.067Z,22.40
2022-10-24T00:57:01.389Z,22.40
2022-10-24T00:59:29.872Z,22.40
2022-10-24T01:01:58.517Z,22.40
2022-10-24T01:04:26.838Z,22.40
2022-10-24T01:07:17.027Z,22.40
2022-10-24T01:10:12.921Z,22.40
2022-10-24T01:12:51.092Z,22.40
2022-10-24T01:15:23.562Z,22.40
2022-10-24T01:17:59.111Z,22.40
2022-10-24T01:20:56.863Z,22.40
2022-10-24T01:23:59.435Z,22.30
2022-10-24T01:26:57.827Z,22.40
2022-10-24T01:29:54.384Z,22.30
2022-10-24T01:32:35.307Z,22.30
2022-10-24T01:35:12.058Z,22.30
2022-10-24T01:37:46.851Z,22.30
2022-10-24T01:40:19.940Z,22.30
2022-10-24T01:42:50.696Z,22.30
2022-10-24T01:45:27.296Z,22.30
2022-10-24T01:47:57.945Z,22.30
2022-10-24T01:50:28.845Z,22.30
2022-10-24T01:52:59.198Z,22.30
2022-10-24T01:55:28.388Z,22.30
2022-10-24T01:57:56.915Z,22.30
2022-10-24T02:00:27.615Z,22.30
2022-10-24T02:02:58.896Z,22.30
2022-10-24T02:05:32.548Z,22.30
2022-10-24T02:08:09.274Z,22.30
2022-10-24T02:10:42.308Z,22.30
2022-10-24T02:13:15.937Z,22.30
2022-10-24T02:15:51.126Z,22.20
2022-10-24T02:18:20.885Z,22.20
2022-10-24T02:20:55.477Z,22.20
2022-10-24T02:23:32.405Z,22.20
2022-10-24T02:26:04.269Z,22.20
2022-10-24T02:28:40.180Z,22.20
2022-10-24T02:31:13.726Z,22.20
2022-10-24T02:33:43.521Z,22.20
2022-10-24T02:36:15.473Z,22.20
2022-10-24T02:38:47.915Z,22.20
2022-10-24T02:41:22.934Z,22.20
2022-10-24T02:43:53.086Z,22.20
2022-10-24T02:46:24.656Z,22.20
2022-10-24T02:48:57.273Z,22.10
2022-10-24T02:51:29.146Z,22.20
2022-10-24T02:53:58.315Z,22.10
2022-10-24T02:56:26.920Z,22.10
2022-10-24T02:58:55.327Z,22.10
2022-10-24T03:01:25.291Z,22.20
2022-10-24T03:03:53.645Z,22.10
2022-10-24T03:06:21.972Z,22.20
2022-10-24T03:08:50.337Z,22.20
2022-10-24T03:11:18.939Z,22.20
2022-10-24T03:13:47.366Z,22.20
2022-10-24T03:16:15.778Z,22.20
2022-10-24T03:18:45.559Z,22.20
2022-10-24T03:21:13.912Z,22.20
2022-10-24T03:23:42.414Z,22.20
2022-10-24T03:26:10.761Z,22.20
2022-10-24T03:28:39.204Z,22.20
2022-10-24T03:31:08.272Z,22.20
2022-10-24T03:33:36.607Z,22.20
2022-10-24T03:36:07.031Z,22.20
2022-10-24T03:38:35.426Z,22.20
2022-10-24T03:41:03.761Z,22.20
2022-10-24T03:43:32.165Z,22.20
2022-10-24T03:46:00.798Z,22.20
2022-10-24T03:48:29.410Z,22.20
2022-10-24T03:50:57.853Z,22.10
2022-10-24T03:53:27.605Z,22.20
2022-10-24T03:55:57.459Z,22.20
2022-10-24T03:58:26.156Z,22.20
2022-10-24T04:00:57.068Z,22.20
2022-10-24T04:03:25.565Z,22.20
2022-10-24T04:05:54.273Z,22.20
2022-10-24T04:08:22.780Z,22.20
2022-10-24T04:10:52.634Z,22.20
2022-10-24T04:13:20.968Z,22.20
2022-10-24T04:15:49.333Z,22.20
2022-10-24T04:18:17.708Z,22.20
2022-10-24T04:20:46.105Z,22.20
2022-10-24T04:23:14.772Z,22.20
2022-10-24T04:25:43.697Z,22.20
2022-10-24T04:28:13.659Z,22.20
2022-10-24T04:33:15.218Z,22.20
2022-10-24T04:35:49.226Z,22.20
2022-10-24T04:38:18.546Z,22.10
2022-10-24T04:40:48.496Z,22.20
2022-10-24T04:43:18.443Z,22.20
2022-10-24T04:45:46.955Z,22.10
2022-10-24T04:48:15.673Z,22.10
2022-10-24T04:50:45.662Z,22.10
2022-10-24T04:53:14.185Z,22.20
2022-10-24T04:55:42.667Z,22.10
2022-10-24T04:58:11.007Z,22.10
2022-10-24T05:00:43.395Z,22.10
2022-10-24T05:03:11.661Z,22.10
2022-10-24T05:05:40.106Z,22.10
2022-10-24T05:08:08.400Z,22.20
2022-10-24T05:10:36.757Z,22.10
2022-10-24T05:13:05.285Z,22.10
2022-10-24T05:15:33.691Z,22.10
2022-10-24T05:18:03.508Z,22.10
2022-10-24T05:20:32.029Z,22.20
2022-10-24T05:23:00.381Z,22.20
2022-10-24T05:25:28.785Z,22.10
2022-10-24T05:27:57.201Z,22.10
2022-10-24T05:30:25.594Z,22.10
2022-10-24T05:32:53.965Z,22.10
2022-10-24T05:35:23.664Z,22.10
2022-10-24T05:37:52.086Z,22.10
2022-10-24T05:40:20.758Z,22.10
2022-10-24T05:42:49.965Z,22.10
2022-10-24T05:45:18.398Z,22.10
2022-10-24T05:47:47.209Z,22.10
2022-10-24T05:50:15.873Z,22.00
2022-10-24T05:52:47.135Z,22.10
2022-10-24T05:55:18.146Z,22.10
2022-10-24T05:57:47.283Z,22.10
2022-10-24T06:00:17.801Z,22.00
2022-10-24T06:05:20.967Z,22.00
2022-10-24T06:07:50.756Z,22.00
2022-10-24T06:10:19.169Z,22.00
2022-10-24T06:12:47.795Z,22.00
2022-10-24T06:15:16.258Z,22.00
2022-10-24T06:17:44.690Z,22.00
2022-10-24T06:20:13.033Z,22.00
2022-10-24T06:22:42.343Z,22.00
2022-10-24T06:25:12.901Z,22.00
2022-10-24T06:27:41.376Z,21.90
2022-10-24T06:30:12.001Z,22.00
2022-10-24T06:32:44.422Z,21.90
2022-10-24T06:35:14.880Z,22.00
2022-10-24T06:37:47.176Z,22.00
2022-10-24T06:40:18.279Z,22.00
2022-10-24T06:42:46.709Z,22.00
2022-10-24T06:45:15.488Z,22.00
2022-10-24T06:47:44.435Z,22.00
2022-10-24T06:50:12.971Z,22.00
2022-10-24T06:52:41.254Z,22.00
2022-10-24T06:55:10.638Z,22.00
2022-10-24T06:57:40.371Z,22.00
2022-10-24T07:00:10.179Z,22.00
2022-10-24T07:02:38.602Z,22.10
2022-10-24T07:05:09.325Z,22.00
2022-10-24T07:07:37.749Z,22.00
2022-10-24T07:10:06.876Z,22.10
2022-10-24T07:12:35.350Z,22.10
2022-10-24T07:15:05.706Z,22.10
2022-10-24T07:17:40.246Z,22.10
2022-10-24T07:20:09.498Z,22.10
2022-10-24T07:22:39.004Z,22.10
2022-10-24T07:25:08.508Z,22.10
2022-10-24T07:27:36.815Z,22.10
2022-10-24T07:30:07.954Z,22.20
2022-10-24T07:32:36.723Z,22.20
2022-10-24T07:35:05.497Z,22.20
2022-10-24T07:37:33.781Z,22.20
2022-10-24T07:40:02.088Z,22.20
2022-10-24T07:42:30.485Z,22.20
2022-10-24T07:44:58.742Z,22.20
2022-10-24T07:47:28.574Z,22.20
2022-10-24T07:49:57.119Z,22.20
2022-10-24T07:52:25.427Z,22.30
2022-10-24T07:54:55.348Z,22.30
2022-10-24T07:57:23.856Z,22.30
2022-10-24T07:59:52.367Z,22.30
2022-10-24T08:02:20.652Z,22.30
2022-10-24T08:04:50.533Z,22.30
2022-10-24T08:07:18.911Z,22.30
2022-10-24T08:09:51.310Z,22.40
2022-10-24T08:12:19.852Z,22.40
2022-10-24T08:14:48.225Z,22.40
2022-10-24T08:17:19.928Z,22.40
2022-10-24T08:19:49.668Z,22.40
2022-10-24T08:22:17.991Z,22.40
2022-10-24T08:24:46.383Z,22.40
2022-10-24T08:27:15.296Z,22.40
2022-10-24T08:29:43.785Z,22.50
2022-10-24T08:32:12.107Z,22.50
2022-10-24T08:34:40.517Z,22.50
2022-10-24T08:37:10.207Z,22.50
2022-10-24T08:39:40.036Z,22.50
2022-10-24T08:42:12.823Z,22.50
2022-10-24T08:44:43.126Z,22.50
2022-10-24T08:47:19.537Z,22.50
2022-10-24T08:49:53.789Z,22.50
2022-10-24T08:52:31.697Z,22.50
2022-10-24T08:55:07.011Z,22.50
2022-10-24T08:57:36.365Z,22.50
2022-10-24T09:00:13.450Z,22.50
2022-10-24T09:02:46.085Z,22.50
2022-10-24T09:05:24.176Z,22.60
2022-10-24T09:07:58.180Z,22.50
2022-10-24T09:10:37.287Z,22.60
2022-10-24T09:13:14.146Z,22.50
2022-10-24T09:15:44.163Z,22.50
2022-10-24T09:18:20.462Z,22.50
2022-10-24T09:20:50.623Z,22.50
2022-10-24T09:23:21.976Z,22.50
2022-10-24T09:25:52.608Z,22.60
2022-10-24T09:28:22.191Z,22.50
2022-10-24T09:30:51.150Z,22.50
2022-10-24T09:33:27.754Z,22.60
2022-10-24T09:35:58.294Z,22.60
2022-10-24T09:38:32.080Z,22.50
2022-10-24T09:41:03.802Z,22.50
2022-10-24T09:43:40.068Z,22.60
2022-10-24T09:46:10.851Z,22.50
2022-10-24T09:48:49.633Z,22.60
2022-10-24T09:51:28.353Z,22.60
2022-10-24T09:54:05.383Z,22.60
2022-10-24T09:56:39.836Z,22.60
2022-10-24T09:59:37.480Z,22.60
2022-10-24T10:02:25.563Z,22.60
2022-10-24T10:05:18.311Z,22.60
2022-10-24T10:07:50.449Z,22.60
2022-10-24T10:10:35.120Z,22.60
2022-10-24T10:13:12.221Z,22.60
2022-10-24T10:15:46.374Z,22.70
2022-10-24T10:18:28.991Z,22.70
2022-10-24T10:21:10.249Z,22.70
2022-10-24T10:23:41.348Z,22.60
2022-10-24T10:26:27.461Z,22.70
2022-10-24T10:29:01.889Z,22.70
2022-10-24T10:31:39.142Z,22.70
2022-10-24T10:34:26.720Z,22.70
2022-10-24T10:37:19.441Z,22.70
2022-10-24T10:40:17.539Z,22.80
2022-10-24T10:43:04.872Z,22.80
2022-10-24T10:45:41.285Z,22.80
2022-10-24T10:48:21.056Z,22.80
2022-10-24T10:50:56.912Z,22.90
2022-10-24T10:53:34.363Z,23.00
2022-10-24T10:56:12.470Z,23.10
2022-10-24T10:58:49.554Z,23.20
2022-10-24T11:01:27.493Z,23.30
2022-10-24T11:04:04.368Z,23.30
2022-10-24T11:06:43.146Z,23.40
2022-10-24T11:09:25.581Z,23.40
2022-10-24T11:12:00.948Z,23.40
2022-10-24T11:14:35.659Z,23.50
2022-10-24T11:17:12.236Z,23.60
2022-10-24T11:20:01.962Z,23.60
2022-10-24T11:22:36.273Z,23.70
2022-10-24T11:25:10.101Z,23.80
2022-10-24T11:27:42.600Z,23.90
2022-10-24T11:30:17.959Z,24.00
2022-10-24T11:32:52.028Z,24.00
2022-10-24T11:35:30.100Z,24.10
2022-10-24T11:38:03.190Z,24.20
2022-10-24T11:40:32.120Z,24.20
2022-10-24T11:43:11.982Z,24.30
2022-10-24T11:45:48.097Z,24.40
2022-10-24T11:48:20.567Z,24.40
2022-10-24T11:50:54.126Z,24.50
2022-10-24T11:53:45.902Z,24.60
2022-10-24T11:56:22.373Z,24.70
2022-10-24T11:58:58.519Z,24.70
2022-10-24T12:02:03.308Z,24.70
2022-10-24T12:05:04.031Z,24.80
2022-10-24T12:08:08.889Z,24.90
2022-10-24T12:10:58.043Z,25.00
2022-10-24T12:13:53.903Z,25.00
2022-10-24T12:16:33.479Z,25.10
2022-10-24T12:19:05.652Z,25.10
2022-10-24T12:21:40.901Z,25.10
2022-10-24T12:24:22.233Z,25.10
2022-10-24T12:26:58.010Z,25.10
2022-10-24T12:29:28.390Z,25.10
2022-10-24T12:31:56.765Z,25.10
2022-10-24T12:34:49.150Z,25.20
2022-10-24T12:37:38.972Z,25.20
2022-10-24T12:40:46.144Z,25.20
2022-10-24T12:43:27.747Z,25.20
2022-10-24T12:45:56.444Z,25.30
2022-10-24T12:48:32.312Z,25.40
2022-10-24T12:51:04.492Z,25.40
2022-10-24T12:53:40.143Z,25.40
2022-10-24T12:59:17.332Z,25.30
2022-10-24T13:01:47.312Z,25.30
2022-10-24T13:04:48.689Z,25.40
2022-10-24T13:08:05.416Z,25.40
2022-10-24T13:10:45.882Z,25.50
2022-10-24T13:13:31.869Z,25.50
2022-10-24T13:16:04.590Z,25.50
2022-10-24T13:18:48.480Z,25.40
2022-10-24T13:21:22.927Z,25.40
2022-10-24T13:23:51.991Z,25.40
2022-10-24T13:26:43.434Z,25.30
2022-10-24T13:29:17.252Z,25.30
2022-10-24T13:31:50.854Z,25.30
2022-10-24T13:34:33.678Z,25.20
2022-10-24T13:37:07.677Z,25.20
2022-10-24T13:39:42.566Z,25.20
2022-10-24T13:42:25.249Z,25.10
2022-10-24T13:44:57.829Z,25.10
2022-10-24T13:47:34.826Z,25.10
2022-10-24T13:50:07.729Z,25.20
2022-10-24T13:52:44.501Z,25.10
2022-10-24T13:55:24.362Z,25.20
2022-10-24T13:57:57.412Z,25.10
2022-10-24T14:00:28.672Z,25.10
2022-10-24T14:02:59.817Z,25.00
2022-10-24T14:05:36.225Z,25.00
2022-10-24T14:08:05.248Z,25.10
2022-10-24T14:10:33.918Z,25.10
2022-10-24T14:13:04.066Z,25.20
2022-10-24T14:15:33.997Z,25.20
2022-10-24T14:18:03.849Z,25.20
2022-10-24T14:20:34.252Z,25.20
2022-10-24T14:23:03.061Z,25.30
2022-10-24T14:25:35.428Z,25.20
2022-10-24T14:28:15.509Z,25.20
2022-10-24T14:30:54.937Z,25.10
2022-10-24T14:33:26.469Z,25.10
2022-10-24T14:35:57.957Z,25.10
2022-10-24T14:38:28.894Z,25.10
2022-10-24T14:41:08.249Z,25.10
2022-10-24T14:43:42.508Z,25.10
2022-10-24T14:46:28.130Z,25.00
2022-10-24T14:48:56.692Z,25.00
2022-10-24T14:51:32.865Z,25.00
2022-10-24T14:54:07.609Z,25.00
2022-10-24T14:56:37.921Z,24.90
2022-10-24T14:59:20.411Z,25.00
2022-10-24T15:01:55.977Z,24.90
2022-10-24T15:04:32.949Z,24.90
2022-10-24T15:07:16.418Z,24.90
2022-10-24T15:09:58.540Z,24.90
2022-10-24T15:12:34.475Z,24.90
2022-10-24T15:15:34.398Z,24.90
2022-10-24T15:18:10.016Z,24.90
2022-10-24T15:20:41.623Z,24.80
2022-10-24T15:23:22.016Z,24.80
2022-10-24T15:26:01.710Z,24.80
2022-10-24T15:28:46.785Z,24.80
2022-10-24T15:31:18.349Z,24.90
2022-10-24T15:33:47.617Z,24.80
2022-10-24T15:36:21.318Z,24.80
2022-10-24T15:38:49.764Z,24.80
2022-10-24T15:41:18.333Z,24.80
2022-10-24T15:43:46.672Z,24.80
2022-10-24T15:46:16.375Z,24.70
2022-10-24T15:48:45.685Z,24.70
2022-10-24T15:51:17.715Z,24.70
2022-10-24T15:53:46.572Z,24.70
2022-10-24T15:56:15.104Z,24.70
2022-10-24T15:58:43.804Z,24.70
2022-10-24T16:01:25.370Z,24.70
2022-10-24T16:03:53.790Z,24.70
2022-10-24T16:06:22.671Z,24.70
2022-10-24T16:08:51.118Z,24.70
2022-10-24T16:11:19.981Z,24.60
2022-10-24T16:13:48.782Z,24.60
2022-10-24T16:16:17.202Z,24.70
2022-10-24T16:18:46.981Z,24.60
2022-10-24T16:21:18.913Z,24.60
2022-10-24T16:23:47.661Z,24.60
2022-10-24T16:26:16.718Z,24.60
2022-10-24T16:28:45.136Z,24.50
2022-10-24T16:31:18.685Z,24.50
2022-10-24T16:33:48.563Z,24.50
2022-10-24T16:36:20.818Z,24.50
2022-10-24T16:38:52.474Z,24.50
2022-10-24T16:41:24.294Z,24.50
2022-10-24T16:43:55.978Z,24.50
2022-10-24T16:46:25.576Z,24.50
2022-10-24T16:48:55.858Z,24.50
2022-10-24T16:51:32.246Z,24.40
2022-10-24T16:54:01.246Z,24.50
2022-10-24T16:56:30.565Z,24.40
2022-10-24T16:58:58.889Z,24.50
2022-10-24T17:01:28.033Z,24.40
2022-10-24T17:03:57.901Z,24.40
2022-10-24T17:06:26.207Z,24.40
2022-10-24T17:08:54.668Z,24.40
2022-10-24T17:14:14.029Z,24.40
2022-10-24T17:16:43.085Z,24.40
2022-10-24T17:19:16.309Z,24.40
2022-10-24T17:21:47.397Z,24.40
2022-10-24T17:24:17.427Z,24.40
2022-10-24T17:26:46.137Z,24.40
2022-10-24T17:29:16.354Z,24.30
2022-10-24T17:31:44.925Z,24.30
2022-10-24T17:34:15.053Z,24.30
2022-10-24T17:36:46.838Z,24.30
2022-10-24T17:39:22.263Z,24.30
2022-10-24T17:41:53.950Z,24.30
2022-10-24T17:44:23.047Z,24.30
2022-10-24T17:46:55.849Z,24.20
2022-10-24T17:49:28.048Z,24.20
2022-10-24T17:51:56.400Z,24.20
2022-10-24T17:54:24.782Z,24.20
2022-10-24T17:56:53.141Z,24.20
2022-10-24T17:59:22.645Z,24.20
2022-10-24T18:01:51.031Z,24.20
2022-10-24T18:04:19.566Z,24.20
2022-10-24T18:06:49.446Z,24.20
2022-10-24T18:09:17.749Z,24.20
2022-10-24T18:11:46.274Z,24.20
2022-10-24T18:14:14.875Z,24.10
2022-10-24T18:16:43.156Z,24.10
2022-10-24T18:19:11.467Z,24.10
2022-10-24T18:21:39.865Z,24.10
2022-10-24T18:24:10.287Z,24.10
2022-10-24T18:26:38.862Z,24.10
2022-10-24T18:29:07.252Z,24.10
2022-10-24T18:31:35.840Z,24.10
2022-10-24T18:34:07.645Z,24.10
2022-10-24T18:36:37.669Z,24.10
2022-10-24T18:39:06.940Z,24.10
2022-10-24T18:41:48.624Z,24.10
2022-10-24T18:44:28.227Z,24.10
2022-10-24T18:46:58.901Z,24.00
2022-10-24T18:49:27.601Z,24.10
2022-10-24T18:52:05.471Z,24.00
2022-10-24T18:54:37.119Z,24.10
2022-10-24T18:57:17.750Z,24.00
2022-10-24T18:59:46.388Z,24.00
2022-10-24T19:02:24.312Z,24.00
2022-10-24T19:04:59.962Z,24.10
2022-10-24T19:07:28.483Z,24.00
2022-10-24T19:09:56.922Z,24.00
2022-10-24T19:12:28.420Z,24.00
2022-10-24T19:14:57.271Z,24.00
2022-10-24T19:17:25.634Z,24.00
2022-10-24T19:19:57.393Z,24.00
2022-10-24T19:22:26.677Z,24.00
2022-10-24T19:24:55.624Z,23.90
2022-10-24T19:27:23.932Z,24.00
2022-10-24T19:29:53.823Z,23.90
2022-10-24T19:32:22.163Z,23.90
2022-10-24T19:34:51.500Z,23.90
2022-10-24T19:37:20.651Z,23.90
2022-10-24T19:39:49.090Z,23.90
2022-10-24T19:42:17.378Z,23.90
2022-10-24T19:47:23.424Z,23.90
2022-10-24T19:49:52.298Z,23.90
2022-10-24T19:52:20.601Z,23.90
2022-10-24T19:54:48.952Z,23.80
2022-10-24T19:57:17.832Z,23.80
2022-10-24T19:59:46.429Z,23.80
2022-10-24T20:02:14.722Z,23.80
2022-10-24T20:04:48.130Z,23.80
2022-10-24T20:07:17.865Z,23.80
2022-10-24T20:09:46.371Z,23.80
2022-10-24T20:12:14.613Z,23.80
2022-10-24T20:14:42.943Z,23.70
2022-10-24T20:17:11.243Z,23.80
2022-10-24T20:19:39.656Z,23.80
2022-10-24T20:24:49.544Z,23.80
2022-10-24T20:27:21.035Z,23.80
2022-10-24T20:29:52.163Z,23.70
2022-10-24T20:32:21.090Z,23.80
2022-10-24T20:34:49.712Z,23.70
2022-10-24T20:37:18.257Z,23.80
2022-10-24T20:39:48.492Z,23.70
2022-10-24T20:42:18.222Z,23.70
2022-10-24T20:44:47.014Z,23.70
2022-10-24T20:47:15.737Z,23.70
2022-10-24T20:49:44.361Z,23.70
2022-10-24T20:52:13.018Z,23.70
2022-10-24T20:54:41.587Z,23.60
2022-10-24T20:57:11.632Z,23.60
2022-10-24T20:59:40.175Z,23.60
2022-10-24T21:02:10.749Z,23.60
2022-10-24T21:04:39.826Z,23.60
2022-10-24T21:07:08.290Z,23.60
2022-10-24T21:09:36.991Z,23.60
2022-10-24T21:12:06.048Z,23.60
2022-10-24T21:14:35.889Z,23.60
2022-10-24T21:17:04.230Z,23.60
2022-10-24T21:19:32.537Z,23.60
2022-10-24T21:22:00.882Z,23.60
2022-10-24T21:24:29.222Z,23.60
2022-10-24T21:26:57.541Z,23.60
2022-10-24T21:29:33.176Z,23.60
2022-10-24T21:32:03.834Z,23.60
2022-10-24T21:34:34.482Z,23.60
2022-10-24T21:37:04.023Z,23.60
2022-10-24T21:39:32.379Z,23.60
2022-10-24T21:42:00.883Z,23.60
2022-10-24T21:44:29.408Z,23.60
2022-10-24T21:46:57.766Z,23.60
2022-10-24T21:49:27.650Z,23.60
2022-10-24T21:51:56.012Z,23.50
2022-10-24T21:54:26.049Z,23.50
2022-10-24T21:56:54.341Z,23.60
2022-10-24T21:59:23.371Z,23.50
2022-10-24T22:01:53.281Z,23.50
2022-10-24T22:04:22.345Z,23.60
2022-10-24T22:06:52.062Z,23.50
2022-10-24T22:09:23.729Z,23.50
2022-10-24T22:11:54.513Z,23.50
2022-10-24T22:14:22.886Z,23.50
2022-10-24T22:16:51.200Z,23.50
2022-10-24T22:19:19.708Z,23.50
2022-10-24T22:21:49.973Z,23.50
2022-10-24T22:24:21.645Z,23.50
2022-10-24T22:26:50.405Z,23.50
2022-10-24T22:29:22.065Z,23.50
2022-10-24T22:31:51.232Z,23.50
2022-10-24T22:34:22.029Z,23.50
2022-10-24T22:37:05.399Z,23.40
2022-10-24T22:39:36.008Z,23.40
2022-10-24T22:42:06.499Z,23.40
2022-10-24T22:44:36.900Z,23.40
2022-10-24T22:47:32.225Z,23.40
2022-10-24T22:50:08.875Z,23.40
2022-10-24T22:52:37.666Z,23.40
2022-10-24T22:55:18.496Z,23.40
2022-10-24T22:57:47.305Z,23.40
2022-10-24T23:00:16.859Z,23.40
2022-10-24T23:02:47.370Z,23.40
2022-10-24T23:05:27.772Z,23.40
2022-10-24T23:08:02.485Z,23.40
2022-10-24T23:10:32.339Z,23.40
2022-10-24T23:13:01.348Z,23.40
2022-10-24T23:15:30.448Z,23.40
2022-10-24T23:17:59.429Z,23.40
2022-10-24T23:20:34.075Z,23.40
2022-10-24T23:23:16.233Z,23.40
2022-10-24T23:25:53.970Z,23.40
2022-10-24T23:28:29.467Z,23.40
2022-10-24T23:31:00.240Z,23.40
2022-10-24T23:33:29.815Z,23.30
2022-10-24T23:36:00.651Z,23.40
2022-10-24T23:38:29.456Z,23.30
2022-10-24T23:40:59.926Z,23.40
2022-10-24T23:43:28.989Z,23.40
2022-10-24T23:46:00.501Z,23.30
2022-10-24T23:48:45.315Z,23.40
2022-10-24T23:51:18.768Z,23.30
2022-10-24T23:53:50.439Z,23.30
2022-10-24T23:56:22.310Z,23.30
2022-10-24T23:58:50.734Z,23.30
